Time;durP1;ratioP1;P1;durP2;ratioP2;P2;SDS_P1;SDS_P2;PMS_P1;PMS_P2;Temp;Humidity;BMP_temperature;BMP_pressure;BME280_temperature;BME280_humidity;BME280_pressure;Samples;Min_cycle;Max_cycle;Signal;HPM_P1;HPM_P2
2021/05/30 00:02:03;;;;;;;12.53;7.40;;;12.30;99.90;;;;;;4998531;28;20296;-53
2021/05/30 00:04:30;;;;;;;10.23;7.50;;;12.30;99.90;;;;;;4999961;28;20276;-52
2021/05/30 00:06:57;;;;;;;13.40;7.77;;;12.30;99.90;;;;;;5001449;28;20216;-52
2021/05/30 00:09:24;;;;;;;12.67;8.67;;;12.20;99.90;;;;;;4999814;28;20599;-52
2021/05/30 00:11:51;;;;;;;11.57;7.40;;;12.10;99.90;;;;;;4999704;28;21263;-53
2021/05/30 00:14:18;;;;;;;12.90;8.27;;;12.10;99.90;;;;;;4998452;28;20197;-53
2021/05/30 00:16:46;;;;;;;11.23;7.07;;;12.10;99.90;;;;;;4997184;28;20210;-52
2021/05/30 00:19:14;;;;;;;9.93;7.50;;;12.10;99.90;;;;;;4996879;28;20647;-52
2021/05/30 00:21:42;;;;;;;10.53;7.23;;;12.00;99.90;;;;;;4993861;28;20578;-52
2021/05/30 00:24:10;;;;;;;11.00;7.57;;;12.10;99.90;;;;;;4993083;28;20292;-52
2021/05/30 00:26:37;;;;;;;11.17;7.60;;;12.00;99.90;;;;;;4977294;28;20345;-52
2021/05/30 00:29:04;;;;;;;11.70;8.43;;;12.00;99.90;;;;;;4994243;28;20280;-52
2021/05/30 00:31:31;;;;;;;13.47;7.63;;;12.10;99.90;;;;;;4991465;28;21784;-52
2021/05/30 00:33:58;;;;;;;9.20;7.60;;;12.00;99.90;;;;;;4992070;28;20211;-52
2021/05/30 00:36:25;;;;;;;13.63;7.83;;;12.00;99.90;;;;;;4994434;28;20252;-52
2021/05/30 00:38:52;;;;;;;10.93;8.23;;;12.00;99.90;;;;;;4993390;28;20213;-52
2021/05/30 00:41:18;;;;;;;11.10;7.67;;;12.10;99.90;;;;;;4975574;28;21347;-52
2021/05/30 00:43:47;;;;;;;11.90;7.03;;;12.10;99.90;;;;;;4991588;28;20860;-52
2021/05/30 00:46:15;;;;;;;13.10;7.57;;;12.00;99.90;;;;;;4992013;28;20205;-52
2021/05/30 00:48:42;;;;;;;12.27;7.80;;;12.10;99.90;;;;;;4976538;28;20282;-52
2021/05/30 00:51:10;;;;;;;12.70;8.07;;;11.90;99.90;;;;;;4977700;28;20337;-52
2021/05/30 00:53:37;;;;;;;11.50;8.37;;;11.70;99.90;;;;;;4975975;28;20252;-51
2021/05/30 00:56:07;;;;;;;12.80;8.13;;;11.70;99.90;;;;;;4992589;28;20298;-51
2021/05/30 00:58:35;;;;;;;10.17;7.43;;;11.60;99.90;;;;;;4992061;28;20309;-51
2021/05/30 01:01:02;;;;;;;11.13;8.07;;;11.40;99.90;;;;;;4991678;28;20778;-53
2021/05/30 01:03:29;;;;;;;10.63;8.50;;;11.40;99.90;;;;;;4993290;28;20216;-51
2021/05/30 01:05:56;;;;;;;9.33;7.20;;;11.40;99.90;;;;;;4992845;28;20600;-51
2021/05/30 01:08:26;;;;;;;10.33;7.13;;;11.40;99.90;;;;;;4992661;28;20211;-52
2021/05/30 01:10:56;;;;;;;11.37;8.03;;;11.20;99.90;;;;;;4990889;28;20678;-52
2021/05/30 01:13:24;;;;;;;11.97;7.87;;;11.30;99.90;;;;;;4990874;28;20216;-52
2021/05/30 01:15:51;;;;;;;11.97;7.73;;;11.50;99.90;;;;;;4990803;28;20206;-52
2021/05/30 01:18:24;;;;;;;12.37;7.80;;;11.50;99.90;;;;;;4993615;28;20206;-52
2021/05/30 01:20:54;;;;;;;9.93;7.43;;;11.40;99.90;;;;;;4991045;28;20236;-51
2021/05/30 01:23:21;;;;;;;15.47;8.03;;;11.30;99.90;;;;;;4991351;28;20320;-53
2021/05/30 01:25:48;;;;;;;11.80;8.27;;;11.10;99.90;;;;;;4974069;28;20294;-53
2021/05/30 01:28:16;;;;;;;12.37;8.07;;;11.20;99.90;;;;;;4992276;28;20201;-53
2021/05/30 01:30:45;;;;;;;10.27;7.77;;;11.20;99.90;;;;;;4992028;28;20556;-51
2021/05/30 01:33:12;;;;;;;11.20;8.00;;;11.00;99.90;;;;;;4990027;28;20303;-51
2021/05/30 01:35:39;;;;;;;11.23;8.10;;;10.90;99.90;;;;;;4959757;28;20370;-51
2021/05/30 01:38:06;;;;;;;11.93;7.83;;;11.00;99.90;;;;;;4993560;28;20237;-52
2021/05/30 01:40:34;;;;;;;11.00;7.47;;;11.10;99.90;;;;;;4992909;28;20679;-52
2021/05/30 01:43:00;;;;;;;10.63;8.07;;;11.00;99.90;;;;;;4988859;28;20245;-52
2021/05/30 01:45:32;;;;;;;10.33;7.70;;;11.00;99.90;;;;;;4975160;28;20499;-52
2021/05/30 01:47:59;;;;;;;13.57;8.87;;;10.90;99.90;;;;;;4991061;28;20293;-52
2021/05/30 01:50:28;;;;;;;11.77;8.10;;;11.00;99.90;;;;;;4991749;28;20296;-53
2021/05/30 01:52:58;;;;;;;12.43;8.53;;;10.90;99.90;;;;;;4972844;28;20693;-52
2021/05/30 01:55:41;;;;;;;12.87;7.70;;;11.00;99.90;;;;;;4992084;28;20306;-52
2021/05/30 01:58:08;;;;;;;13.43;7.70;;;10.80;99.90;;;;;;4992671;28;20526;-52
2021/05/30 02:00:36;;;;;;;13.83;8.50;;;10.80;99.90;;;;;;4991330;28;20203;-51
2021/05/30 02:03:03;;;;;;;12.73;7.63;;;10.80;99.90;;;;;;4993363;28;20250;-51
2021/05/30 02:05:31;;;;;;;12.30;7.97;;;10.80;99.90;;;;;;4976932;28;20261;-51
2021/05/30 02:07:59;;;;;;;12.10;7.80;;;11.00;99.90;;;;;;4992788;28;20313;-53
2021/05/30 02:10:27;;;;;;;10.60;7.43;;;10.90;99.90;;;;;;4975324;28;20665;-53
2021/05/30 02:12:56;;;;;;;12.57;8.10;;;11.00;99.90;;;;;;4993307;28;20273;-51
2021/05/30 02:15:23;;;;;;;12.57;8.10;;;10.80;99.90;;;;;;4981477;28;20304;-51
2021/05/30 02:17:50;;;;;;;14.03;7.67;;;10.70;99.90;;;;;;4997819;28;20227;-52
2021/05/30 02:20:28;;;;;;;12.23;8.63;;;10.70;99.90;;;;;;4973119;28;20252;-52
2021/05/30 02:22:55;;;;;;;12.40;7.83;;;10.80;99.90;;;;;;4992925;28;20254;-51
2021/05/30 02:25:21;;;;;;;10.33;8.17;;;10.80;99.90;;;;;;4993859;28;20606;-52
2021/05/30 02:27:51;;;;;;;11.73;7.63;;;10.70;99.90;;;;;;4995870;28;20210;-52
2021/05/30 02:30:18;;;;;;;13.47;7.70;;;10.60;99.90;;;;;;4994917;28;20534;-52
2021/05/30 02:32:46;;;;;;;12.73;7.97;;;10.70;99.90;;;;;;4993616;28;20209;-52
2021/05/30 02:35:13;;;;;;;11.00;8.30;;;10.60;99.90;;;;;;4989880;28;20284;-51
2021/05/30 02:37:40;;;;;;;10.37;7.47;;;10.60;99.90;;;;;;4975159;28;20549;-52
2021/05/30 02:40:09;;;;;;;15.40;7.97;;;10.60;99.90;;;;;;4993567;28;20220;-53
2021/05/30 02:42:36;;;;;;;10.83;8.17;;;10.50;99.90;;;;;;4959156;28;20256;-53
2021/05/30 02:45:07;;;;;;;13.00;7.93;;;10.70;99.90;;;;;;4975598;28;20292;-53
2021/05/30 02:47:35;;;;;;;15.10;8.17;;;10.80;99.90;;;;;;4991758;28;20683;-51
2021/05/30 02:50:04;;;;;;;9.93;7.03;;;10.80;99.90;;;;;;4979730;28;20198;-51
2021/05/30 02:52:30;;;;;;;10.70;7.47;;;10.70;99.90;;;;;;4975671;28;20218;-53
2021/05/30 02:54:57;;;;;;;11.80;7.67;;;10.60;99.90;;;;;;4990864;28;20233;-52
2021/05/30 02:57:24;;;;;;;12.73;8.00;;;10.50;99.90;;;;;;4996357;28;20230;-52
2021/05/30 02:59:51;;;;;;;10.67;7.17;;;10.50;99.90;;;;;;4994197;28;20205;-52
2021/05/30 03:02:18;;;;;;;13.33;7.83;;;10.30;99.90;;;;;;4991987;28;20258;-52
2021/05/30 03:04:45;;;;;;;11.17;7.50;;;10.30;99.90;;;;;;4990804;28;20389;-51
2021/05/30 03:07:12;;;;;;;14.33;8.40;;;10.30;99.90;;;;;;4973483;28;20688;-52
2021/05/30 03:09:39;;;;;;;11.47;7.80;;;10.40;99.90;;;;;;4970938;28;20757;-52
2021/05/30 03:12:06;;;;;;;13.80;7.80;;;10.50;99.90;;;;;;4995431;28;20388;-52
2021/05/30 03:14:33;;;;;;;13.63;8.47;;;10.30;99.90;;;;;;4979705;28;20655;-52
2021/05/30 03:17:00;;;;;;;15.67;8.57;;;10.60;99.90;;;;;;4994712;28;20207;-52
2021/05/30 03:19:27;;;;;;;10.63;7.80;;;10.70;99.90;;;;;;4994701;28;20199;-52
2021/05/30 03:21:54;;;;;;;13.23;8.07;;;10.70;99.90;;;;;;4957277;28;20299;-52
2021/05/30 03:24:21;;;;;;;10.00;7.63;;;10.60;99.90;;;;;;4961780;28;20303;-52
2021/05/30 03:26:48;;;;;;;11.70;8.10;;;10.60;99.90;;;;;;4961082;28;20304;-52
2021/05/30 03:29:15;;;;;;;12.37;7.77;;;10.50;99.90;;;;;;4977720;28;20217;-52
2021/05/30 03:31:42;;;;;;;12.47;7.43;;;10.50;99.90;;;;;;4974743;28;20256;-52
2021/05/30 03:34:09;;;;;;;10.77;7.70;;;10.40;99.90;;;;;;4969420;28;20201;-52
2021/05/30 03:36:36;;;;;;;12.83;8.70;;;10.40;99.90;;;;;;4979389;28;20794;-52
2021/05/30 03:39:06;;;;;;;11.57;8.33;;;10.50;99.90;;;;;;4992948;28;20264;-51
2021/05/30 03:41:36;;;;;;;12.33;7.70;;;10.40;99.90;;;;;;4974696;28;20260;-52
2021/05/30 03:44:08;;;;;;;12.10;8.20;;;10.40;99.90;;;;;;4991119;28;21397;-51
2021/05/30 03:46:36;;;;;;;12.50;7.90;;;10.10;99.90;;;;;;4962897;28;20283;-51
2021/05/30 03:49:08;;;;;;;10.77;7.37;;;10.20;99.90;;;;;;4988064;28;20205;-52
2021/05/30 03:51:35;;;;;;;10.37;7.90;;;10.30;99.90;;;;;;4990915;28;20197;-52
2021/05/30 03:54:02;;;;;;;16.27;7.53;;;10.30;99.90;;;;;;4988990;28;20298;-52
2021/05/30 03:56:29;;;;;;;12.37;7.90;;;10.40;99.90;;;;;;4990843;28;20253;-52
2021/05/30 03:58:57;;;;;;;12.27;8.63;;;10.40;99.90;;;;;;4994000;28;21093;-53
2021/05/30 04:01:24;;;;;;;14.73;9.43;;;10.40;99.90;;;;;;4994619;28;21143;-53
2021/05/30 04:03:51;;;;;;;10.90;7.67;;;10.50;99.90;;;;;;4993350;28;20218;-53
2021/05/30 04:06:18;;;;;;;13.80;8.87;;;10.20;99.90;;;;;;4976281;28;20206;-51
2021/05/30 04:08:47;;;;;;;11.63;8.67;;;10.10;99.90;;;;;;4992587;28;20202;-52
2021/05/30 04:11:15;;;;;;;13.77;8.30;;;10.10;99.90;;;;;;4993041;28;20204;-52
2021/05/30 04:13:42;;;;;;;14.50;8.63;;;10.10;99.90;;;;;;4959698;28;20644;-52
2021/05/30 04:16:09;;;;;;;16.27;8.53;;;10.10;99.90;;;;;;4994084;28;20305;-52
2021/05/30 04:18:36;;;;;;;14.77;9.00;;;10.10;99.90;;;;;;4980008;28;20203;-52
2021/05/30 04:21:04;;;;;;;14.93;8.30;;;9.90;99.90;;;;;;4994429;28;20202;-52
2021/05/30 04:23:31;;;;;;;11.37;8.53;;;9.80;99.90;;;;;;4993030;28;20221;-52
2021/05/30 04:25:58;;;;;;;15.17;8.70;;;9.80;99.90;;;;;;4993721;28;20325;-51
2021/05/30 04:28:25;;;;;;;14.13;8.70;;;9.90;99.90;;;;;;4975490;28;20381;-51
2021/05/30 04:30:52;;;;;;;13.33;8.73;;;10.10;99.90;;;;;;4994574;28;20205;-51
2021/05/30 04:33:19;;;;;;;12.50;9.50;;;10.00;99.90;;;;;;4993112;28;20294;-51
2021/05/30 04:35:46;;;;;;;15.07;8.90;;;9.90;99.90;;;;;;4989260;28;20246;-52
2021/05/30 04:38:13;;;;;;;16.53;8.57;;;9.70;99.90;;;;;;4994552;28;20227;-52
2021/05/30 04:40:40;;;;;;;15.47;9.20;;;9.80;99.90;;;;;;4992255;28;20287;-52
2021/05/30 04:43:07;;;;;;;16.03;9.17;;;9.90;99.90;;;;;;4963449;28;20197;-51
2021/05/30 04:45:34;;;;;;;13.20;9.53;;;9.90;99.90;;;;;;4994022;28;20626;-52
2021/05/30 04:48:00;;;;;;;15.40;9.10;;;9.80;99.90;;;;;;4979137;28;20552;-52
2021/05/30 04:50:28;;;;;;;11.80;8.03;;;9.90;99.90;;;;;;4993284;28;20195;-52
2021/05/30 04:52:55;;;;;;;16.90;9.30;;;10.10;99.90;;;;;;4976726;28;20195;-52
2021/05/30 04:55:22;;;;;;;12.90;8.67;;;10.30;99.90;;;;;;4993940;28;20314;-52
2021/05/30 04:57:48;;;;;;;14.30;9.53;;;10.30;99.90;;;;;;4977346;28;20232;-52
2021/05/30 05:00:16;;;;;;;16.03;9.00;;;10.50;99.90;;;;;;4992406;28;20294;-52
2021/05/30 05:02:44;;;;;;;14.87;8.83;;;10.50;99.90;;;;;;4993107;28;20208;-52
2021/05/30 05:05:11;;;;;;;11.70;8.50;;;10.70;99.90;;;;;;4994614;28;20632;-52
2021/05/30 05:07:40;;;;;;;13.87;9.73;;;10.60;99.90;;;;;;4993682;28;20232;-52
2021/05/30 05:10:09;;;;;;;14.63;9.50;;;10.60;99.90;;;;;;4990082;28;20230;-52
2021/05/30 05:12:36;;;;;;;14.53;9.23;;;10.60;99.90;;;;;;4975452;28;20312;-52
2021/05/30 05:15:03;;;;;;;13.90;9.10;;;10.30;99.90;;;;;;4975126;28;20208;-52
2021/05/30 05:17:30;;;;;;;11.53;9.07;;;10.40;99.90;;;;;;4991861;28;20244;-52
2021/05/30 05:19:57;;;;;;;15.63;9.47;;;10.50;99.90;;;;;;4993710;28;20271;-52
2021/05/30 05:22:24;;;;;;;14.90;9.10;;;10.40;99.90;;;;;;4993153;28;20277;-52
2021/05/30 05:25:00;;;;;;;13.77;9.40;;;10.30;99.90;;;;;;4992356;28;20313;-51
2021/05/30 05:27:26;;;;;;;13.93;9.30;;;10.50;99.90;;;;;;4976955;28;20647;-51
2021/05/30 05:29:53;;;;;;;13.60;8.37;;;10.70;99.90;;;;;;4994877;28;20207;-52
2021/05/30 05:32:20;;;;;;;14.10;9.40;;;10.80;99.90;;;;;;4977848;28;20292;-51
2021/05/30 05:34:47;;;;;;;13.23;10.00;;;10.70;99.90;;;;;;4993857;28;20232;-52
2021/05/30 05:37:14;;;;;;;13.43;9.80;;;11.00;99.90;;;;;;4992875;28;20452;-52
2021/05/30 05:39:40;;;;;;;18.77;9.97;;;11.30;99.90;;;;;;4991289;28;20355;-51
2021/05/30 05:42:08;;;;;;;17.90;9.50;;;11.40;99.90;;;;;;4992150;28;20671;-51
2021/05/30 05:44:35;;;;;;;14.20;9.77;;;11.60;99.90;;;;;;4990964;28;20223;-52
2021/05/30 05:47:04;;;;;;;15.10;9.30;;;11.60;99.90;;;;;;4992693;28;20205;-52
2021/05/30 05:49:33;;;;;;;19.40;9.50;;;11.60;99.90;;;;;;4991438;28;20206;-52
2021/05/30 05:52:00;;;;;;;13.13;9.73;;;11.60;99.90;;;;;;4994330;28;20198;-52
2021/05/30 05:54:45;;;;;;;15.10;9.03;;;11.60;99.90;;;;;;4991373;28;20659;-52
2021/05/30 05:57:12;;;;;;;15.37;8.93;;;11.50;99.90;;;;;;4975557;28;20988;-52
2021/05/30 05:59:38;;;;;;;15.43;9.77;;;11.60;99.90;;;;;;4993803;28;20327;-51
2021/05/30 06:02:06;;;;;;;13.73;9.60;;;11.40;99.90;;;;;;4986205;28;20210;-52
2021/05/30 06:04:33;;;;;;;18.50;9.47;;;11.60;99.90;;;;;;4976553;28;20246;-52
2021/05/30 06:07:00;;;;;;;15.90;9.50;;;11.60;99.90;;;;;;4978378;28;20220;-52
2021/05/30 06:09:27;;;;;;;18.37;9.77;;;11.60;99.90;;;;;;4990769;28;20219;-52
2021/05/30 06:11:54;;;;;;;17.07;9.73;;;11.60;99.90;;;;;;4992766;28;20303;-52
2021/05/30 06:14:21;;;;;;;15.10;10.43;;;11.60;99.90;;;;;;4972131;28;20612;-52
2021/05/30 06:16:48;;;;;;;16.07;10.20;;;11.90;99.90;;;;;;4975735;28;20282;-52
2021/05/30 06:19:15;;;;;;;16.33;9.93;;;12.10;99.90;;;;;;4990829;28;20713;-51
2021/05/30 06:21:42;;;;;;;18.70;10.73;;;12.30;99.90;;;;;;4963886;28;20715;-52
2021/05/30 06:24:09;;;;;;;16.87;10.37;;;12.20;99.90;;;;;;4990078;28;20223;-51
2021/05/30 06:26:36;;;;;;;15.47;10.37;;;12.10;99.90;;;;;;4970496;28;20232;-52
2021/05/30 06:29:04;;;;;;;14.97;11.47;;;12.10;99.90;;;;;;4990371;28;20288;-52
2021/05/30 06:31:31;;;;;;;14.97;10.47;;;12.30;99.90;;;;;;4991030;28;20279;-53
2021/05/30 06:33:59;;;;;;;16.73;9.77;;;12.50;99.90;;;;;;4988222;28;20527;-53
2021/05/30 06:36:26;;;;;;;16.10;10.93;;;12.90;99.90;;;;;;4992109;28;20239;-53
2021/05/30 06:38:53;;;;;;;15.40;10.40;;;12.90;99.90;;;;;;4992725;28;20243;-52
2021/05/30 06:41:19;;;;;;;19.13;10.50;;;13.20;99.90;;;;;;4992325;28;20712;-52
2021/05/30 06:43:50;;;;;;;14.37;9.80;;;13.50;99.90;;;;;;4992029;28;20307;-52
2021/05/30 06:46:17;;;;;;;13.10;9.17;;;13.30;99.90;;;;;;4993222;28;20224;-53
2021/05/30 06:48:44;;;;;;;13.00;10.00;;;13.80;99.90;;;;;;4961079;28;20207;-53
2021/05/30 06:51:18;;;;;;;13.17;10.00;;;14.10;99.90;;;;;;4974778;28;20243;-53
2021/05/30 06:53:46;;;;;;;14.43;10.13;;;14.20;99.90;;;;;;4992902;28;20255;-53
2021/05/30 06:56:14;;;;;;;14.80;10.03;;;14.30;99.90;;;;;;4977249;28;20260;-53
2021/05/30 06:58:41;;;;;;;15.60;10.63;;;14.30;99.90;;;;;;4993547;28;20259;-53
2021/05/30 07:01:08;;;;;;;15.00;10.13;;;14.40;99.90;;;;;;4959824;28;20313;-53
2021/05/30 07:03:35;;;;;;;16.00;10.33;;;14.60;99.90;;;;;;4992134;28;20208;-53
2021/05/30 07:06:03;;;;;;;14.13;10.23;;;14.70;99.90;;;;;;4993206;28;20808;-52
2021/05/30 07:08:29;;;;;;;17.03;10.13;;;14.70;99.90;;;;;;4991456;28;20215;-52
2021/05/30 07:10:56;;;;;;;13.00;10.00;;;15.00;99.90;;;;;;4975540;28;20585;-52
2021/05/30 07:13:23;;;;;;;16.00;10.30;;;14.90;99.90;;;;;;4992824;28;20629;-52
2021/05/30 07:15:53;;;;;;;14.87;10.60;;;15.30;99.90;;;;;;4993292;28;20222;-53
2021/05/30 07:18:21;;;;;;;15.13;10.17;;;15.40;99.90;;;;;;4992855;28;20694;-53
2021/05/30 07:20:49;;;;;;;15.17;10.87;;;15.40;99.90;;;;;;4993673;28;20324;-53
2021/05/30 07:23:17;;;;;;;14.00;11.07;;;15.80;99.90;;;;;;4973497;28;20284;-54
2021/05/30 07:25:44;;;;;;;13.53;10.50;;;15.80;99.90;;;;;;4987769;28;20311;-53
2021/05/30 07:28:11;;;;;;;14.23;9.87;;;15.90;99.90;;;;;;4974343;28;20225;-53
2021/05/30 07:30:38;;;;;;;20.07;11.00;;;16.30;99.90;;;;;;4993160;28;20226;-53
2021/05/30 07:33:05;;;;;;;14.33;10.57;;;16.30;99.90;;;;;;4992604;28;20817;-52
2021/05/30 07:35:33;;;;;;;13.97;10.00;;;16.40;99.90;;;;;;4961539;28;20282;-54
2021/05/30 07:38:00;;;;;;;15.13;10.20;;;16.40;99.90;;;;;;4986539;28;20203;-52
2021/05/30 07:40:27;;;;;;;14.00;11.03;;;16.50;99.90;;;;;;4979957;28;20206;-54
2021/05/30 07:42:54;;;;;;;19.80;10.73;;;16.50;99.90;;;;;;4996343;28;20303;-53
2021/05/30 07:45:23;;;;;;;13.00;10.23;;;16.60;99.90;;;;;;4994545;28;20312;-53
2021/05/30 07:47:50;;;;;;;16.07;10.90;;;17.00;99.90;;;;;;4977800;28;20226;-53
2021/05/30 07:50:18;;;;;;;14.67;11.00;;;16.90;99.90;;;;;;4994482;28;20210;-53
2021/05/30 07:52:45;;;;;;;16.07;11.23;;;16.50;99.90;;;;;;4977285;28;20322;-52
2021/05/30 07:55:13;;;;;;;16.53;11.13;;;17.00;99.90;;;;;;4993867;28;20241;-53
2021/05/30 07:57:41;;;;;;;18.30;11.43;;;17.30;99.90;;;;;;4993405;28;20637;-54
2021/05/30 08:00:12;;;;;;;15.77;11.17;;;17.00;99.90;;;;;;4993283;28;20361;-53
2021/05/30 08:02:39;;;;;;;14.60;11.07;;;16.90;99.90;;;;;;4993546;28;20837;-53
2021/05/30 08:05:10;;;;;;;17.17;11.30;;;17.30;99.90;;;;;;4997537;28;20658;-54
2021/05/30 08:07:38;;;;;;;15.90;10.83;;;17.70;99.90;;;;;;4992330;28;21000;-54
2021/05/30 08:10:08;;;;;;;15.10;10.70;;;18.00;99.90;;;;;;4993031;28;20206;-53
2021/05/30 08:12:35;;;;;;;13.87;10.57;;;17.80;99.90;;;;;;4995124;28;20706;-54
2021/05/30 08:15:04;;;;;;;18.10;12.17;;;18.10;99.90;;;;;;4992142;28;20210;-53
2021/05/30 08:17:31;;;;;;;15.57;11.67;;;18.10;99.90;;;;;;4990764;28;20234;-53
2021/05/30 08:19:58;;;;;;;15.30;11.30;;;18.30;99.20;;;;;;4995017;28;20216;-53
2021/05/30 08:22:25;;;;;;;15.00;10.53;;;18.30;99.90;;;;;;4996778;28;20222;-53
2021/05/30 08:24:53;;;;;;;18.07;11.97;;;18.40;95.30;;;;;;4995441;28;20323;-53
2021/05/30 08:27:20;;;;;;;19.50;11.40;;;18.60;99.90;;;;;;4998903;28;20293;-53
2021/05/30 08:29:47;;;;;;;17.17;11.80;;;18.90;99.50;;;;;;4994587;28;20209;-53
2021/05/30 08:32:14;;;;;;;17.73;11.37;;;18.60;95.90;;;;;;4996731;28;20278;-53
2021/05/30 08:34:42;;;;;;;15.07;10.87;;;18.90;97.50;;;;;;4997052;28;20286;-53
2021/05/30 08:37:09;;;;;;;16.40;11.20;;;19.20;79.60;;;;;;4995633;28;20277;-52
2021/05/30 08:39:36;;;;;;;16.87;11.27;;;18.90;92.50;;;;;;4993101;28;20377;-53
2021/05/30 08:42:03;;;;;;;17.17;11.27;;;19.30;86.10;;;;;;4995491;28;20280;-53
2021/05/30 08:44:30;;;;;;;14.33;11.17;;;19.20;81.90;;;;;;4995634;28;20218;-53
2021/05/30 08:46:57;;;;;;;18.70;11.57;;;19.50;86.40;;;;;;4994329;28;20207;-53
2021/05/30 08:49:24;;;;;;;16.83;10.93;;;19.60;82.90;;;;;;4997703;28;20292;-53
2021/05/30 08:51:51;;;;;;;17.30;11.23;;;19.90;84.50;;;;;;4978494;28;20193;-54
2021/05/30 08:54:20;;;;;;;18.67;12.43;;;20.00;73.70;;;;;;4996178;28;20292;-53
2021/05/30 08:56:48;;;;;;;16.37;11.93;;;20.10;70.00;;;;;;4984599;28;20262;-52
2021/05/30 08:59:16;;;;;;;15.03;11.20;;;20.00;67.60;;;;;;4995817;28;20202;-53
2021/05/30 09:01:44;;;;;;;14.83;11.20;;;20.30;73.10;;;;;;4995540;28;20244;-52
2021/05/30 09:04:13;;;;;;;16.97;12.33;;;20.30;61.60;;;;;;4994057;28;20213;-53
2021/05/30 09:06:44;;;;;;;14.10;10.77;;;20.10;62.30;;;;;;4996575;28;20895;-53
2021/05/30 09:09:12;;;;;;;14.93;10.67;;;20.60;63.70;;;;;;4993216;28;20353;-53
2021/05/30 09:11:48;;;;;;;15.67;11.47;;;20.80;58.60;;;;;;4976093;28;20447;-53
2021/05/30 09:14:18;;;;;;;17.77;10.87;;;20.70;48.50;;;;;;4998397;28;20312;-53
2021/05/30 09:19:46;;;;;;;14.07;9.60;;;20.00;58.10;;;;;;4746274;26;20250;-50
2021/05/30 09:22:30;;;;;;;15.20;9.20;;;20.50;52.70;;;;;;5016082;28;20553;-50
2021/05/30 09:25:17;;;;;;;15.03;10.47;;;20.80;48.90;;;;;;5019995;28;20240;-50
2021/05/30 09:27:48;;;;;;;16.83;10.47;;;20.60;46.60;;;;;;5023065;28;20262;-51
2021/05/30 09:30:32;;;;;;;12.43;9.27;;;20.30;45.30;;;;;;5021046;28;20209;-49
2021/05/30 09:33:14;;;;;;;12.67;9.93;;;20.60;50.60;;;;;;5020402;28;20220;-50
2021/05/30 09:35:44;;;;;;;10.57;9.23;;;20.90;42.30;;;;;;5023711;28;20671;-51
2021/05/30 09:38:15;;;;;;;12.47;9.00;;;20.70;31.80;;;;;;5018659;28;20832;-49
2021/05/30 09:40:55;;;;;;;10.70;8.43;;;21.00;40.80;;;;;;5020993;28;20507;-50
2021/05/30 09:43:25;;;;;;;10.63;8.13;;;21.00;45.80;;;;;;5017040;28;20649;-49
2021/05/30 09:46:08;;;;;;;13.23;7.97;;;20.90;31.50;;;;;;5016337;28;20698;-50
2021/05/30 09:48:45;;;;;;;10.93;7.33;;;21.00;27.70;;;;;;5016503;28;20624;-50
2021/05/30 09:51:30;;;;;;;12.93;7.90;;;21.30;36.90;;;;;;5020483;28;20227;-50
2021/05/30 09:54:04;;;;;;;7.97;6.90;;;21.50;29.80;;;;;;5017696;28;20310;-50
2021/05/30 09:56:36;;;;;;;9.53;7.77;;;21.70;25.10;;;;;;5016620;28;20673;-51
2021/05/30 09:59:09;;;;;;;9.33;6.97;;;22.00;23.00;;;;;;5018622;28;20751;-49
2021/05/30 10:02:08;;;;;;;11.30;7.30;;;20.90;15.80;;;;;;5023948;28;20238;-49
2021/05/30 10:04:36;;;;;;;10.23;7.03;;;20.80;26.90;;;;;;5008970;28;20233;-49
2021/05/30 10:07:05;;;;;;;8.97;6.53;;;21.30;20.80;;;;;;5023821;28;20335;-50
2021/05/30 10:09:33;;;;;;;12.50;7.57;;;21.50;23.80;;;;;;5021621;28;20582;-50
2021/05/30 10:12:00;;;;;;;10.43;7.23;;;21.30;22.00;;;;;;5024049;28;20251;-50
2021/05/30 10:14:28;;;;;;;6.40;5.57;;;21.50;29.10;;;;;;5016507;28;20207;-49
2021/05/30 10:16:55;;;;;;;9.90;6.63;;;21.10;22.00;;;;;;5016699;28;20211;-50
2021/05/30 10:19:43;;;;;;;6.57;5.87;;;21.30;19.20;;;;;;5001330;28;20633;-49
2021/05/30 10:22:11;;;;;;;9.70;5.20;;;21.40;14.90;;;;;;5002709;28;20305;-50
2021/05/30 10:24:43;;;;;;;9.93;5.60;;;21.80;18.40;;;;;;4997078;28;20300;-50
2021/05/30 10:27:14;;;;;;;6.13;5.23;;;21.80;13.60;;;;;;5002915;28;20204;-49
2021/05/30 10:30:01;;;;;;;7.70;5.70;;;21.20;18.90;;;;;;5006004;28;20212;-50
2021/05/30 10:32:29;;;;;;;8.77;5.57;;;21.40;18.10;;;;;;5002937;28;20243;-50
2021/05/30 10:35:17;;;;;;;5.60;4.60;;;21.90;15.30;;;;;;5006156;28;20243;-49
2021/05/30 10:37:46;;;;;;;6.13;4.13;;;22.00;11.90;;;;;;5004313;28;20599;-49
2021/05/30 10:40:26;;;;;;;5.67;4.30;;;22.10;11.80;;;;;;5006371;28;20302;-49
2021/05/30 10:43:08;;;;;;;5.60;4.70;;;22.10;12.90;;;;;;5005495;28;20232;-50
2021/05/30 10:45:44;;;;;;;5.73;4.30;;;21.90;8.80;;;;;;5003746;28;20220;-49
2021/05/30 10:48:16;;;;;;;7.43;4.80;;;22.10;12.60;;;;;;5000411;28;20205;-49
2021/05/30 10:53:34;;;;;;;6.97;4.47;;;22.20;10.00;;;;;;5005338;28;20658;-50
2021/05/30 10:56:23;;;;;;;6.53;4.63;;;22.30;8.30;;;;;;4999913;28;20225;-50
2021/05/30 10:59:09;;;;;;;4.63;3.30;;;22.00;5.30;;;;;;5003509;28;20292;-50
2021/05/30 11:04:30;;;;;;;4.80;3.30;;;22.90;1.70;;;;;;5000804;28;20243;-50
2021/05/30 11:07:08;;;;;;;7.37;3.23;;;22.90;2.20;;;;;;5001972;28;20449;-51
2021/05/30 11:10:01;;;;;;;3.67;3.00;;;23.00;1.00;;;;;;5005570;28;20627;-50
2021/05/30 11:12:28;;;;;;;5.33;3.60;;;23.00;1.00;;;;;;4998986;28;20263;-51
2021/05/30 11:15:10;;;;;;;4.67;3.60;;;23.20;1.00;;;;;;5003583;28;20220;-50
2021/05/30 11:17:39;;;;;;;3.07;2.77;;;23.10;1.00;;;;;;5001224;28;20235;-50
2021/05/30 11:20:09;;;;;;;3.43;3.10;;;22.80;1.00;;;;;;5002590;28;20232;-51
2021/05/30 11:22:47;;;;;;;3.53;2.60;;;23.00;1.00;;;;;;5004756;28;20246;-51
2021/05/30 11:25:35;;;;;;;2.77;2.17;;;22.90;1.00;;;;;;5001296;28;20693;-49
2021/05/30 11:28:10;;;;;;;1.97;1.83;;;22.90;1.00;;;;;;5002766;28;20292;-51
2021/05/30 11:30:38;;;;;;;2.93;2.50;;;23.60;1.00;;;;;;5001939;28;20196;-51
2021/05/30 11:33:07;;;;;;;2.53;2.20;;;24.10;1.00;;;;;;5005034;28;20243;-50
2021/05/30 11:35:34;;;;;;;3.40;2.27;;;24.60;1.00;;;;;;5003687;28;20232;-50
2021/05/30 11:38:02;;;;;;;2.97;2.03;;;24.40;1.00;;;;;;4987469;28;20229;-50
2021/05/30 11:40:32;;;;;;;2.53;1.97;;;24.20;1.00;;;;;;5004875;28;20622;-50
2021/05/30 11:43:17;;;;;;;2.63;1.80;;;24.50;1.00;;;;;;5001227;28;20251;-50
2021/05/30 11:45:46;;;;;;;2.17;1.97;;;24.20;1.00;;;;;;5002592;28;20252;-51
2021/05/30 11:48:15;;;;;;;2.70;2.10;;;24.20;1.00;;;;;;5003561;28;20627;-50
2021/05/30 11:50:51;;;;;;;3.03;2.00;;;24.60;1.00;;;;;;5005840;28;20352;-50
2021/05/30 11:53:26;;;;;;;2.53;2.20;;;24.60;1.00;;;;;;5006407;28;20199;-49
2021/05/30 11:55:54;;;;;;;1.63;1.30;;;24.40;1.00;;;;;;5004176;28;20702;-49
2021/05/30 11:58:20;;;;;;;2.53;2.00;;;24.50;1.00;;;;;;5003097;28;20256;-50
2021/05/30 12:00:57;;;;;;;2.47;1.50;;;24.70;1.00;;;;;;4996409;28;20255;-50
2021/05/30 12:03:24;;;;;;;2.37;1.57;;;24.90;1.00;;;;;;4998555;28;20207;-50
2021/05/30 12:05:57;;;;;;;2.80;1.73;;;25.00;1.00;;;;;;4997231;28;20249;-50
2021/05/30 12:08:24;;;;;;;2.37;2.17;;;25.20;1.00;;;;;;4999156;28;20294;-50
2021/05/30 12:10:57;;;;;;;1.87;1.63;;;24.90;1.00;;;;;;4999472;28;20287;-51
2021/05/30 12:13:29;;;;;;;2.10;1.80;;;24.80;1.00;;;;;;4995048;28;20501;-49
2021/05/30 12:15:58;;;;;;;1.90;1.70;;;24.70;1.00;;;;;;4992228;28;20293;-49
2021/05/30 12:18:27;;;;;;;3.10;1.63;;;25.30;1.00;;;;;;5001516;28;20727;-49
2021/05/30 12:21:00;;;;;;;1.60;1.33;;;26.40;1.00;;;;;;5001828;28;20276;-49
2021/05/30 12:23:27;;;;;;;1.93;1.23;;;25.90;1.00;;;;;;5002482;28;20233;-49
2021/05/30 12:25:57;;;;;;;2.17;1.37;;;26.00;1.00;;;;;;5004233;28;20272;-50
2021/05/30 12:28:30;;;;;;;2.77;1.73;;;27.20;1.00;;;;;;5003812;28;20196;-48
2021/05/30 12:31:02;;;;;;;1.87;1.50;;;27.80;1.00;;;;;;5016793;28;20264;-49
2021/05/30 12:33:49;;;;;;;2.47;1.43;;;27.40;1.00;;;;;;5004775;28;20200;-48
2021/05/30 12:36:36;;;;;;;1.97;1.30;;;26.60;1.00;;;;;;5000795;28;20232;-49
2021/05/30 12:39:13;;;;;;;2.10;1.90;;;26.90;1.00;;;;;;5007224;28;20201;-48
2021/05/30 12:41:44;;;;;;;2.00;1.80;;;26.00;1.00;;;;;;5012616;28;20281;-48
2021/05/30 12:44:16;;;;;;;2.23;1.50;;;25.80;1.00;;;;;;5015394;28;20578;-48
2021/05/30 12:46:58;;;;;;;3.50;2.00;;;26.50;1.00;;;;;;5009778;28;20258;-50
2021/05/30 12:49:26;;;;;;;2.67;1.40;;;26.60;1.00;;;;;;5002240;28;20205;-49
2021/05/30 12:52:16;;;;;;;2.13;1.60;;;26.80;1.00;;;;;;5004521;28;20189;-50
2021/05/30 12:55:04;;;;;;;2.50;1.80;;;27.40;1.00;;;;;;5003608;28;20283;-47
2021/05/30 12:57:35;;;;;;;4.17;2.00;;;26.80;1.00;;;;;;5011539;28;20239;-49
2021/05/30 13:00:10;;;;;;;1.70;1.40;;;26.80;1.00;;;;;;5004011;28;20202;-49